Kezdőlap
METAR-TAF:

METAR-TAF

Repülőterek :

Hongkongi nemzetközi repülőtér

Hongkong, Kína

földrajzi szélesség: 22-19N, földrajzi hosszúság: 113-55E, magasság: 9 m

Jelenlegi meteorológiai megfigyelések

A jelentés 19 perccel ezelõtt készült, 22:30 UTC
Keleti szél 9 kt
Hőmérséklet 23°C
Páratartalom 65%
Légköri nyomás 1015 hPa
Látótávolság 10 km, vagy több
felhőtlen 1500 m magasságban, és nincs gomolyfelhõ

METAR: VHHH 242230Z 10009KT CAVOK 23/16 Q1015 NOSIG

Idő: 06:49 (22:49 UTC)

Előrejelzés

A jelentés 5 órával és 49 perccel ezelõtt készült, 17:00 UTC
Az előrejelzés 24-én 18 óra UTC és 25-én 24 óra UTC között érvényes
Keleti szél 10 kt
Látótávolság 10 km, vagy több
Kevés felhő 4000 lábon

TAF: VHHH 241700Z 2418/2524 09010KT 9999 FEW040 TX28/2506Z TN24/2422Z TN24/2522Z

Meteorológiai megfigyelések és előrejelzések több, mint 4000 repülőtéren (METAR és TAF jelentéseket).

A térképen piros és sárga pontok jelzik az elérhető meteorológiai állomásokat.

Mozgassa az egeret a pont fölött, hogy megjelenjen az állomás neve.

Azután kattintson az időjárási megfigyelések és előrejelzések megtekintéséhez.

A térkép megváltoztatása: kattintson a fekete keresztel jelölt zöld gombra ráközelítéshez, a vonallal jelölt zöld gombra távolításhoz, vagy a zöld nyilakra a szomszédos térképek eléréséhez.


METAR-TAF: